Scroll down
FLIGHT INFORMATION
ASL Airlines Ireland

ABR8264

At Arrival Gate

LEMD
 LFLL
DATE: 2021-03-13
GATE: 
GATE DEPARTURE: 04:25
TAKEOFF: 04:42
DATE: 2021-03-13
GATE:  -
LANDING: 06:14
GATE ARRIVAL: 06:22
FLIGHT DATA
Crew: 
Speed: 
840 kph
Altitude: 
37,020 ft
Stage Length: 
912.1 km
Block Time: 
2 hrs
Flight Time: 
1.5 hrs
Fuel Used: 
4,261 kg
Cleared Route: LEMD PINAR SEGRE LARDA RONNY TOPTU GONUP TOU GAI MAKIL DITEV MEN NINUN MEZIN LFLL
TRACK DATA
50,000 ft 1,000 kts
AIRCRAFT INFO AND CUMULATIVE STATS
Aircraft Type: 
B738BCF
Registration: 
SELCAL: 
MSN/LN: 
33544 / 1249
Operator: 
Total Flights: 
1
Total Block Time: 
2 hrs
Total Flight Time: 
1.5 hrs
Total Fuel Used: 
4,261 kg
DATALINK LOG | Newest first | Current as of: 2022-08-18 16:53:18
LABEL SEQUENCE CONTENT Dn/Up
QD312806:22 9.6▼ Dn
QC232306:14▼ Dn
2U2308LFLL 101030Z VRB03KT CAVOK 08/01 Q1022 NOSIG▲ Up
2S3125LFLL▼ Dn
QB093604:42▼ Dn
QA280304:25 19▼ Dn
A30422CLEARED TO LFLL VIA PINA2N PINAR UN870 SEGRE UN871 MEZIN MEZI5N. SQUAWK 6225.▲ Up
B30412LEMD LFLL R ▼ Dn
Q00109[LINK ACK]▲ Up
Q00109[LINK TEST]▼ Dn


AIRCRAFT HISTORY
FLIGHT DATE FLIGHT NO. ORIGIN DESTINATION CLEARED ROUTE BLOCK TIME FLIGHT TIME FUEL USED PILOT
2021-03-13ABR8264LEMD LFLL LEMD PINAR SEGRE LARDA RONNY TOPTU GONUP TOU GAI MAKIL DITEV MEN NINUN MEZIN LFLL2 hrs1.5 hrs9,393 lbMike Dryden